KCRP

Corpus Christi International Airport

Corpus Christi, Texas, USA
METAR KCRP 160051Z 31005KT 10SM FEW250 12/00 A3022 RMK AO2 SLP233 T01220000
Observed Flight Rules
Dec-16 @ 00:51 UTC (27 minutes ago) Visual Flight Rules
Wind Visibility Clouds
310° at 5 knots 10 miles
  • Few at 25,000' AGL
Temperatures Readings
Current 12°C / 54°F
Dewpoint 0°C / 32°F
Humidity 44%
Altimeter 30.22" Hg
Pressure 1023.3 hPa
Elevation 14
METAR KCRP 160051Z 31005KT 10SM FEW250 12/00 A3022 RMK AO2 SLP233 T01220000
Observed Flight Rules
Dec-16 @ 00:51 UTC
(27 minutes ago)
VFR
Wind Visibility
310° at 5 knots 10 miles
Clouds
  • Few at 25,000' AGL
Temperature Dewpoint
12°C / 54°F 0°C / 32°F
Humidity Altimeter Pressure
44% 30.22" Hg 1023.3 hPa